National Weather Service Raw Text Product

Displaying AFOS PIL: TAFMCW Received: 2018-02-09 05:26 UTC


619 
FTUS43 KDMX 090526
TAFMCW
TAF
KMCW 090526Z 0906/1006 04011KT 4SM -SN OVC015
      TEMPO 0906/0908 1SM -SN OVC006
     FM090900 02012KT P6SM SCT015 BKN025
     FM091200 01014KT P6SM BKN050
     FM091600 01011KT P6SM SCT150
     FM100000 34008KT P6SM BKN030=